Time;durP1;ratioP1;P1;durP2;ratioP2;P2;SDS_P1;SDS_P2;PMS_P1;PMS_P2;Temp;Humidity;BMP_temperature;BMP_pressure;BME280_temperature;BME280_humidity;BME280_pressure;Samples;Min_cycle;Max_cycle;Signal;HPM_P1;HPM_P2
2022/11/02 00:02:15;;;;;;;43.78;11.65;;;;;;;17.06;100.00;98465.34;4992496;28;20068;-61
2022/11/02 00:04:41;;;;;;;33.13;10.18;;;;;;;16.46;100.00;98453.03;4996655;28;20029;-60
2022/11/02 00:07:06;;;;;;;50.35;12.85;;;;;;;15.98;100.00;98453.09;4992737;28;20042;-60
2022/11/02 00:09:31;;;;;;;36.78;10.10;;;;;;;15.55;100.00;98446.66;4994829;28;20034;-61
2022/11/02 00:11:57;;;;;;;37.80;10.75;;;;;;;15.83;100.00;98446.06;4995435;28;20038;-62
2022/11/02 00:14:22;;;;;;;50.47;11.00;;;;;;;16.38;100.00;98445.56;4994862;28;20075;-65
2022/11/02 00:16:47;;;;;;;35.78;9.45;;;;;;;16.86;100.00;98455.16;4996590;28;20048;-64
2022/11/02 00:19:13;;;;;;;35.95;8.85;;;;;;;16.71;100.00;98459.50;4996600;28;20026;-63
2022/11/02 00:21:40;;;;;;;31.42;9.05;;;;;;;17.02;100.00;98463.84;4997186;28;20096;-62
2022/11/02 00:24:07;;;;;;;29.38;9.35;;;;;;;16.77;100.00;98459.13;4996965;28;20065;-60
2022/11/02 00:26:34;;;;;;;36.97;10.30;;;;;;;16.02;100.00;98466.06;4996295;28;20704;-60
2022/11/02 00:29:00;;;;;;;31.67;8.93;;;;;;;16.24;100.00;98463.09;4997164;28;20057;-60
2022/11/02 00:31:26;;;;;;;35.40;8.80;;;;;;;16.74;100.00;98470.72;4993378;28;20395;-60
2022/11/02 00:33:51;;;;;;;33.03;8.45;;;;;;;16.91;100.00;98466.28;4998128;28;20561;-60
2022/11/02 00:36:17;;;;;;;29.88;8.30;;;;;;;16.57;100.00;98468.19;4997227;28;20427;-62
2022/11/02 00:38:42;;;;;;;34.58;8.30;;;;;;;16.84;100.00;98475.47;4996541;28;20470;-62
2022/11/02 00:41:07;;;;;;;25.73;7.00;;;;;;;16.68;100.00;98468.41;4994139;28;20049;-62
2022/11/02 00:43:33;;;;;;;30.67;7.65;;;;;;;16.54;100.00;98471.00;4994406;28;20036;-60
2022/11/02 00:45:59;;;;;;;35.03;8.20;;;;;;;16.42;100.00;98477.84;4995559;28;20042;-60
2022/11/02 00:48:24;;;;;;;33.83;8.18;;;;;;;16.51;100.00;98474.66;4995609;28;20149;-59
2022/11/02 00:50:50;;;;;;;34.47;8.00;;;;;;;16.79;100.00;98477.50;4996738;28;20037;-61
2022/11/02 00:53:15;;;;;;;36.75;8.32;;;;;;;16.22;100.00;98473.69;4980724;28;20038;-63
2022/11/02 00:55:41;;;;;;;32.67;8.52;;;;;;;16.84;100.00;98480.75;4995743;28;20049;-62
2022/11/02 00:58:06;;;;;;;29.35;9.00;;;;;;;17.08;100.00;98484.53;4997841;28;20029;-60
2022/11/02 01:00:31;;;;;;;37.40;9.50;;;;;;;16.48;100.00;98482.75;4995072;28;20038;-59
2022/11/02 01:03:01;;;;;;;36.13;9.80;;;;;;;16.61;100.00;98477.59;4995724;28;20032;-59
2022/11/02 01:05:27;;;;;;;39.15;9.50;;;;;;;16.53;100.00;98480.69;4996821;28;20077;-59
2022/11/02 01:07:52;;;;;;;35.85;8.82;;;;;;;17.07;100.00;98482.84;4995270;28;20065;-59
2022/11/02 01:10:17;;;;;;;26.75;8.13;;;;;;;16.51;100.00;98484.38;4996212;28;20029;-62
2022/11/02 01:12:43;;;;;;;27.95;7.28;;;;;;;17.53;100.00;98487.97;4994524;28;20350;-61
2022/11/02 01:15:09;;;;;;;33.55;8.60;;;;;;;16.95;100.00;98479.16;4993991;28;20677;-60
2022/11/02 01:17:35;;;;;;;29.80;7.78;;;;;;;15.29;100.00;98471.72;4991469;28;20030;-61
2022/11/02 01:20:01;;;;;;;33.67;8.15;;;;;;;15.73;100.00;98477.25;4997495;28;20033;-61
2022/11/02 01:22:26;;;;;;;32.25;8.63;;;;;;;15.67;100.00;98476.72;4997803;28;20026;-60
2022/11/02 01:24:52;;;;;;;29.85;8.18;;;;;;;15.33;100.00;98478.50;4995642;28;20538;-64
2022/11/02 01:27:17;;;;;;;32.88;7.97;;;;;;;15.69;100.00;98477.50;4995523;28;20045;-60
2022/11/02 01:29:42;;;;;;;34.97;8.43;;;;;;;16.89;100.00;98479.53;4994459;28;20100;-60
2022/11/02 01:32:08;;;;;;;36.00;8.70;;;;;;;16.65;100.00;98479.16;4994637;28;20061;-60
2022/11/02 01:34:33;;;;;;;33.60;8.07;;;;;;;16.58;100.00;98469.91;4994240;28;20026;-60
2022/11/02 01:36:59;;;;;;;30.60;7.70;;;;;;;17.08;100.00;98481.06;4996366;28;20045;-60
2022/11/02 01:39:24;;;;;;;42.78;8.80;;;;;;;17.83;100.00;98476.44;4995358;28;20879;-61
2022/11/02 01:41:51;;;;;;;30.60;7.75;;;;;;;16.41;100.00;98468.22;4994084;28;20096;-61
2022/11/02 01:44:27;;;;;;;38.25;7.95;;;;;;;17.77;100.00;98468.88;4994101;28;20026;-65
2022/11/02 01:46:56;;;;;;;32.95;7.90;;;;;;;17.34;100.00;98479.47;4991378;28;20030;-61
2022/11/02 01:49:22;;;;;;;39.83;7.82;;;;;;;16.69;100.00;98475.41;4992723;28;20059;-61
2022/11/02 01:51:56;;;;;;;36.45;7.70;;;;;;;16.17;100.00;98475.72;4994767;28;20100;-61
2022/11/02 01:54:26;;;;;;;25.30;6.80;;;;;;;15.69;100.00;98470.44;4995062;28;20034;-61
2022/11/02 01:56:57;;;;;;;35.22;7.60;;;;;;;15.54;100.00;98461.59;4992363;28;20033;-60
2022/11/02 01:59:28;;;;;;;32.00;7.65;;;;;;;15.68;100.00;98465.25;4993468;28;20139;-60
2022/11/02 02:01:54;;;;;;;31.58;7.45;;;;;;;16.53;100.00;98466.69;4995572;28;20156;-61
2022/11/02 02:04:21;;;;;;;28.20;7.10;;;;;;;17.25;100.00;98469.50;4994072;28;20144;-61
2022/11/02 02:06:46;;;;;;;37.78;8.10;;;;;;;16.32;100.00;98459.09;4993149;28;20039;-62
2022/11/02 02:09:13;;;;;;;30.02;7.78;;;;;;;16.31;100.00;98467.91;4996111;28;20025;-61
2022/11/02 02:11:39;;;;;;;40.15;9.10;;;;;;;15.27;100.00;98463.06;4993166;28;20038;-62
2022/11/02 02:14:10;;;;;;;37.67;8.88;;;;;;;15.67;100.00;98459.16;4996222;28;20042;-62
2022/11/02 02:16:42;;;;;;;39.60;9.00;;;;;;;16.46;100.00;98465.34;4991806;28;20519;-62
2022/11/02 02:19:28;;;;;;;33.65;8.40;;;;;;;16.38;100.00;98469.25;4996141;28;20148;-61
2022/11/02 02:22:10;;;;;;;44.05;9.60;;;;;;;15.88;100.00;98465.06;4991111;28;20392;-61
2022/11/02 02:24:52;;;;;;;37.08;8.98;;;;;;;16.18;100.00;98457.22;4995010;28;20069;-62
2022/11/02 02:27:20;;;;;;;28.67;7.07;;;;;;;16.76;100.00;98467.97;4994013;28;20140;-65
2022/11/02 02:29:58;;;;;;;42.03;9.15;;;;;;;16.23;100.00;98458.75;4995447;28;20057;-62
2022/11/02 02:32:46;;;;;;;31.50;7.55;;;;;;;17.08;100.00;98471.34;4994003;28;20042;-61
2022/11/02 02:35:27;;;;;;;33.50;7.45;;;;;;;17.02;100.00;98463.84;4992752;28;20054;-62
2022/11/02 02:38:11;;;;;;;38.17;8.27;;;;;;;16.94;100.00;98453.72;4994251;28;20108;-61
2022/11/02 02:41:17;;;;;;;26.08;7.22;;;;;;;16.75;100.00;98453.09;4994380;28;20483;-63
2022/11/02 02:43:48;;;;;;;31.33;7.65;;;;;;;17.15;100.00;98459.50;4918084;29;20634;-62
2022/11/02 02:46:21;;;;;;;31.40;8.35;;;;;;;15.57;100.00;98450.94;4985459;28;20065;-61
2022/11/02 02:48:50;;;;;;;30.88;8.75;;;;;;;15.56;100.00;98451.00;4995363;28;20593;-61
2022/11/02 02:51:21;;;;;;;35.65;9.02;;;;;;;15.56;100.00;98451.84;4994076;28;20049;-61
2022/11/02 02:53:52;;;;;;;33.50;8.38;;;;;;;15.73;100.00;98455.34;4995844;28;20030;-61
2022/11/02 02:56:22;;;;;;;46.13;9.68;;;;;;;15.51;100.00;98455.66;4995101;28;20038;-63
2022/11/02 02:59:01;;;;;;;37.65;9.05;;;;;;;15.09;100.00;98439.47;4996303;28;20018;-61
2022/11/02 03:01:27;;;;;;;37.70;8.85;;;;;;;15.45;100.00;98446.31;4994064;28;20038;-63
2022/11/02 03:03:52;;;;;;;31.05;7.68;;;;;;;15.70;100.00;98445.00;4994636;28;20026;-61
2022/11/02 03:06:32;;;;;;;35.70;7.93;;;;;;;17.03;100.00;98443.59;4992050;28;20034;-62
2022/11/02 03:09:01;;;;;;;33.25;7.97;;;;;;;15.43;100.00;98437.69;4994580;28;20037;-61
2022/11/02 03:11:27;;;;;;;33.90;7.57;;;;;;;16.14;100.00;98439.09;4993247;28;20052;-61
2022/11/02 03:14:17;;;;;;;26.65;6.55;;;;;;;17.25;100.00;98438.69;4995668;28;20065;-61
2022/11/02 03:17:02;;;;;;;33.83;7.50;;;;;;;17.30;100.00;98436.63;4994725;28;20122;-61
2022/11/02 03:19:49;;;;;;;38.38;7.88;;;;;;;17.10;100.00;98450.19;4998712;28;20033;-61
2022/11/02 03:22:38;;;;;;;26.80;6.47;;;;;;;16.94;100.00;98445.81;4998538;28;20038;-63
2022/11/02 03:25:16;;;;;;;28.10;6.82;;;;;;;15.47;100.00;98447.09;4998931;28;20535;-60
2022/11/02 03:27:58;;;;;;;36.17;7.63;;;;;;;16.04;100.00;98437.91;5019260;28;20064;-60
2022/11/02 03:30:28;;;;;;;30.57;6.73;;;;;;;16.31;100.00;98449.47;5017864;28;20038;-62
2022/11/02 03:32:56;;;;;;;29.55;6.60;;;;;;;16.48;100.00;98442.41;5018349;28;20064;-61
2022/11/02 03:35:55;;;;;;;29.73;7.13;;;;;;;16.13;100.00;98445.28;5016545;28;20037;-61
2022/11/02 03:38:31;;;;;;;32.33;7.07;;;;;;;15.49;100.00;98437.34;4985930;28;20046;-61
2022/11/02 03:41:00;;;;;;;30.48;6.63;;;;;;;16.05;100.00;98442.25;4996442;28;20049;-61
2022/11/02 03:43:26;;;;;;;36.72;7.30;;;;;;;15.63;100.00;98443.66;4996896;28;20034;-61
2022/11/02 03:45:59;;;;;;;38.30;7.43;;;;;;;16.60;100.00;98446.97;4997199;28;20103;-61
2022/11/02 03:48:31;;;;;;;31.88;7.07;;;;;;;15.85;100.00;98449.44;4995638;28;20026;-61
2022/11/02 03:50:59;;;;;;;27.15;6.53;;;;;;;15.91;100.00;98454.34;4994378;28;20042;-62
2022/11/02 03:53:33;;;;;;;33.63;7.63;;;;;;;15.03;100.00;98451.16;5000030;28;20030;-61
2022/11/02 03:56:04;;;;;;;27.38;6.85;;;;;;;16.42;100.00;98453.31;4996980;28;20781;-61
2022/11/02 03:58:30;;;;;;;36.97;7.83;;;;;;;15.17;100.00;98453.06;4996700;28;20774;-61
2022/11/02 04:00:59;;;;;;;37.65;7.50;;;;;;;16.43;100.00;98454.97;4994576;28;20602;-63
2022/11/02 04:03:26;;;;;;;33.13;6.47;;;;;;;15.80;100.00;98462.00;4998783;28;20060;-61
2022/11/02 04:05:51;;;;;;;37.42;7.78;;;;;;;15.17;100.00;98453.06;5001663;28;20052;-61
2022/11/02 04:08:28;;;;;;;33.22;7.38;;;;;;;13.85;100.00;98451.72;4997780;28;20042;-61
2022/11/02 04:16:21;;;;;;;29.15;6.68;;;;;;;16.16;100.00;98466.16;4997309;28;20175;-61
2022/11/02 04:21:31;;;;;;;33.05;8.00;;;;;;;13.97;100.00;98459.00;4997916;28;20307;-60
2022/11/02 04:26:40;;;;;;;30.40;6.80;;;;;;;15.61;100.00;98462.13;4994841;28;20103;-61
2022/11/02 04:29:06;;;;;;;34.67;7.35;;;;;;;15.69;100.00;98464.34;4997374;28;20113;-61
2022/11/02 04:31:31;;;;;;;32.22;6.82;;;;;;;16.18;100.00;98466.91;4998680;28;20091;-61
2022/11/02 04:34:00;;;;;;;33.40;8.25;;;;;;;14.34;100.00;98457.22;4994576;28;20038;-63
2022/11/02 04:36:28;;;;;;;38.15;9.73;;;;;;;14.16;100.00;98460.75;4992877;28;20038;-60
2022/11/02 04:38:53;;;;;;;37.70;9.43;;;;;;;13.84;100.00;98457.88;4995679;28;20038;-65
2022/11/02 04:44:05;;;;;;;39.25;8.88;;;;;;;14.84;100.00;98469.63;4996504;28;20089;-62
2022/11/02 04:46:33;;;;;;;35.45;7.60;;;;;;;15.13;100.00;98456.78;4993939;28;20117;-61
2022/11/02 04:48:58;;;;;;;31.90;7.75;;;;;;;14.50;100.00;98467.84;4996756;28;20480;-62
2022/11/02 04:51:26;;;;;;;33.78;7.25;;;;;;;15.18;100.00;98460.00;4994023;28;20101;-60
2022/11/02 04:53:53;;;;;;;28.40;6.72;;;;;;;14.96;100.00;98454.16;4995559;28;20038;-60
2022/11/02 04:56:19;;;;;;;32.65;6.88;;;;;;;14.97;100.00;98461.13;4978662;28;20693;-63
2022/11/02 04:58:51;;;;;;;23.52;6.63;;;;;;;15.74;100.00;98470.22;5008760;28;20029;-62
2022/11/02 05:01:18;;;;;;;26.75;6.65;;;;;;;17.03;100.00;98475.22;5010462;28;20064;-61
2022/11/02 05:03:46;;;;;;;37.38;7.90;;;;;;;15.31;100.00;98480.38;5014229;28;20033;-61
2022/11/02 05:06:11;;;;;;;36.42;8.13;;;;;;;14.97;100.00;98476.88;5017003;28;20033;-61
2022/11/02 05:08:38;;;;;;;41.20;8.50;;;;;;;13.90;100.00;98477.72;5015134;28;20036;-60
2022/11/02 05:11:03;;;;;;;31.02;6.85;;;;;;;14.69;100.00;98488.78;5017729;28;20056;-60
2022/11/02 05:13:29;;;;;;;33.33;7.10;;;;;;;14.67;100.00;98484.53;5017628;28;20048;-61
2022/11/02 05:15:56;;;;;;;32.95;7.30;;;;;;;13.72;100.00;98485.50;5015993;28;20056;-61
2022/11/02 05:18:21;;;;;;;32.92;7.00;;;;;;;13.65;100.00;98484.94;5018954;28;20183;-61
2022/11/02 05:20:51;;;;;;;38.60;7.47;;;;;;;14.41;100.00;98479.63;5003686;28;20080;-61
2022/11/02 05:23:17;;;;;;;29.90;7.07;;;;;;;14.18;100.00;98482.50;5020310;28;20431;-60
2022/11/02 05:25:51;;;;;;;37.63;7.85;;;;;;;13.87;100.00;98489.19;5015129;28;20034;-60
2022/11/02 05:28:17;;;;;;;37.50;7.20;;;;;;;14.01;100.00;98491.19;5013923;28;20121;-60
2022/11/02 05:30:42;;;;;;;35.92;7.43;;;;;;;14.55;100.00;98476.31;5014565;28;20479;-60
2022/11/02 05:33:07;;;;;;;40.72;7.65;;;;;;;13.97;100.00;98489.59;5014941;28;20033;-60
2022/11/02 05:35:33;;;;;;;38.63;7.85;;;;;;;13.60;100.00;98479.06;5016594;28;20134;-61
2022/11/02 05:37:58;;;;;;;38.92;7.65;;;;;;;13.69;100.00;98481.28;5015559;28;20108;-60
2022/11/02 05:40:23;;;;;;;31.80;6.50;;;;;;;14.95;100.00;98481.38;5011762;28;20034;-60
2022/11/02 05:42:49;;;;;;;37.67;6.95;;;;;;;14.79;100.00;98492.63;5014686;28;20025;-62
2022/11/02 05:45:14;;;;;;;35.25;7.40;;;;;;;13.86;100.00;98485.72;5017264;28;20113;-61
2022/11/02 05:47:39;;;;;;;40.35;7.18;;;;;;;13.80;100.00;98493.03;5013052;28;20029;-60
2022/11/02 05:50:05;;;;;;;42.38;8.05;;;;;;;13.46;100.00;98492.78;5014227;28;20029;-61
2022/11/02 05:52:30;;;;;;;34.22;7.30;;;;;;;14.29;100.00;98497.75;5012135;28;20021;-60
2022/11/02 05:54:56;;;;;;;28.95;6.50;;;;;;;14.74;100.00;98502.53;5015802;28;20120;-63
2022/11/02 05:57:21;;;;;;;33.70;7.57;;;;;;;13.43;100.00;98505.19;5014092;28;20040;-62
2022/11/02 05:59:46;;;;;;;42.92;8.20;;;;;;;13.37;100.00;98494.97;5012765;28;20068;-62
2022/11/02 06:02:12;;;;;;;38.70;7.35;;;;;;;14.30;100.00;98502.91;5015700;28;20052;-61
2022/11/02 06:04:37;;;;;;;30.40;6.97;;;;;;;13.45;100.00;98508.56;5014409;28;20380;-61
2022/11/02 06:07:03;;;;;;;28.17;6.63;;;;;;;13.87;100.00;98500.53;5014193;28;20117;-63
2022/11/02 06:09:28;;;;;;;35.80;7.40;;;;;;;14.57;100.00;98505.09;5013480;28;20091;-60
2022/11/02 06:11:55;;;;;;;37.13;7.90;;;;;;;13.87;100.00;98504.94;5014476;28;20038;-65
2022/11/02 06:14:20;;;;;;;36.28;6.82;;;;;;;14.72;100.00;98514.91;5014461;28;20025;-63
2022/11/02 06:16:45;;;;;;;31.35;6.85;;;;;;;14.03;100.00;98516.41;5015563;28;20577;-65
2022/11/02 06:19:11;;;;;;;37.75;7.10;;;;;;;14.14;100.00;98522.94;5012694;28;20124;-61
2022/11/02 06:21:36;;;;;;;32.78;6.93;;;;;;;14.85;100.00;98525.66;5009958;28;20538;-59
2022/11/02 06:24:01;;;;;;;29.65;6.55;;;;;;;14.54;100.00;98518.38;5014702;28;20026;-60
2022/11/02 06:26:27;;;;;;;37.88;7.57;;;;;;;14.79;100.00;98531.19;5013776;28;20041;-61
2022/11/02 06:28:52;;;;;;;33.45;7.15;;;;;;;13.78;100.00;98519.31;5012962;28;20034;-59
2022/11/02 06:31:17;;;;;;;36.58;7.40;;;;;;;13.62;100.00;98529.66;5012767;28;20519;-62
2022/11/02 06:33:44;;;;;;;43.53;7.90;;;;;;;14.32;100.00;98522.06;5012725;28;20506;-61
2022/11/02 06:36:09;;;;;;;34.03;6.53;;;;;;;14.30;100.00;98523.91;4996141;28;20045;-60
2022/11/02 06:38:37;;;;;;;39.45;8.15;;;;;;;13.75;100.00;98531.69;5017624;28;20021;-60
2022/11/02 06:41:05;;;;;;;31.88;8.10;;;;;;;13.61;100.00;98543.66;5014807;28;20025;-61
2022/11/02 06:43:31;;;;;;;29.17;8.02;;;;;;;13.87;100.00;98542.47;5015564;28;20029;-59
2022/11/02 06:45:57;;;;;;;27.73;8.30;;;;;;;14.23;100.00;98543.50;5011500;28;20033;-58
2022/11/02 06:48:24;;;;;;;45.72;10.32;;;;;;;13.63;100.00;98544.44;5015400;28;20037;-59
2022/11/02 06:50:50;;;;;;;44.72;9.38;;;;;;;14.11;100.00;98544.06;5012406;28;20441;-61
2022/11/02 06:53:15;;;;;;;40.90;8.98;;;;;;;13.92;100.00;98551.94;5015159;28;20032;-60
2022/11/02 06:55:40;;;;;;;36.08;8.55;;;;;;;14.39;100.00;98562.84;5015478;28;20037;-59
2022/11/02 06:58:06;;;;;;;34.38;7.93;;;;;;;14.13;100.00;98563.19;5016591;28;20024;-59
2022/11/02 07:00:31;;;;;;;40.38;8.25;;;;;;;14.12;100.00;98566.75;5015240;28;20045;-61
2022/11/02 07:03:05;;;;;;;38.20;8.43;;;;;;;13.91;100.00;98563.34;5014870;28;20943;-59
2022/11/02 07:05:31;;;;;;;32.58;7.65;;;;;;;13.83;100.00;98568.94;5016553;28;20037;-59
2022/11/02 07:07:57;;;;;;;44.78;8.55;;;;;;;14.04;100.00;98569.72;5014913;28;20285;-59
2022/11/02 07:10:23;;;;;;;39.75;8.18;;;;;;;14.08;100.00;98577.38;5014464;28;20045;-60
2022/11/02 07:12:53;;;;;;;31.77;7.78;;;;;;;14.67;100.00;98569.41;5019563;28;21046;-60
2022/11/02 07:15:20;;;;;;;36.40;8.52;;;;;;;15.50;100.00;98570.50;5016211;28;20839;-60
2022/11/02 07:17:46;;;;;;;231.88;18.08;;;;;;;16.72;100.00;98580.56;5016768;28;20043;-59
2022/11/02 07:20:11;;;;;;;1999.90;136.45;;;;;;;17.81;100.00;98578.59;5018452;28;20025;-59
2022/11/02 07:22:36;;;;;;;36.45;9.10;;;;;;;19.15;100.00;98577.16;5018431;28;20040;-59
2022/11/02 07:25:02;;;;;;;37.25;8.32;;;;;;;19.60;100.00;98588.22;5018174;28;20013;-61
2022/11/02 07:27:27;;;;;;;36.42;7.50;;;;;;;19.87;100.00;98588.16;5013908;28;20037;-60
2022/11/02 07:29:53;;;;;;;33.85;7.22;;;;;;;19.87;100.00;98595.22;5017046;28;20038;-59
2022/11/02 07:32:18;;;;;;;36.35;7.93;;;;;;;19.34;100.00;98596.13;5018039;28;20141;-60
2022/11/02 07:34:43;;;;;;;26.73;7.10;;;;;;;20.41;100.00;98594.94;5017052;28;20057;-60
2022/11/02 07:37:09;;;;;;;33.38;7.57;;;;;;;20.30;100.00;98598.34;5016947;28;20124;-60
2022/11/02 07:39:34;;;;;;;33.15;8.00;;;;;;;20.16;100.00;98602.00;5017780;28;20029;-59
2022/11/02 07:42:00;;;;;;;35.58;7.78;;;;;;;19.52;100.00;98601.13;5018260;28;20083;-60
2022/11/02 07:44:25;;;;;;;29.65;7.60;;;;;;;19.05;100.00;98596.28;5016909;28;20045;-59
2022/11/02 07:46:50;;;;;;;26.35;7.22;;;;;;;18.66;100.00;98605.84;5017870;28;20056;-60
2022/11/02 07:49:16;;;;;;;32.10;7.25;;;;;;;19.21;100.00;98605.84;5021439;28;20664;-59
2022/11/02 07:51:42;;;;;;;28.15;7.38;;;;;;;19.00;100.00;98606.31;5013871;28;20037;-59
2022/11/02 07:54:08;;;;;;;28.70;7.40;;;;;;;18.89;100.00;98600.88;5016045;28;20088;-59
2022/11/02 07:56:33;;;;;;;31.88;8.40;;;;;;;18.63;100.00;98607.84;5011405;28;20046;-60
2022/11/02 07:58:59;;;;;;;30.52;7.70;;;;;;;18.13;100.00;98610.09;5018315;28;20083;-60
2022/11/02 08:01:24;;;;;;;32.47;6.90;;;;;;;18.13;100.00;98606.63;5015513;28;20048;-59
2022/11/02 08:03:49;;;;;;;34.92;7.13;;;;;;;17.92;100.00;98602.56;5017605;28;20032;-61
2022/11/02 08:06:15;;;;;;;26.63;6.65;;;;;;;18.32;100.00;98609.78;5017520;28;20037;-60
2022/11/02 08:08:40;;;;;;;38.90;8.00;;;;;;;18.43;100.00;98599.38;5002940;28;20635;-59
2022/11/02 08:11:07;;;;;;;27.98;6.22;;;;;;;18.99;100.00;98609.91;5014794;28;20048;-62
2022/11/02 08:13:35;;;;;;;27.10;5.57;;;;;;;19.15;100.00;98604.47;5019083;28;20764;-59
2022/11/02 08:16:01;;;;;;;26.33;5.40;;;;;;;18.93;100.00;98614.75;5015034;28;20050;-59
2022/11/02 08:18:28;;;;;;;24.58;5.40;;;;;;;19.54;100.00;98618.59;5016530;28;20036;-60
2022/11/02 08:20:55;;;;;;;39.80;6.65;;;;;;;17.89;100.00;98609.81;5012332;28;20045;-60
2022/11/02 08:23:21;;;;;;;27.20;6.93;;;;;;;17.66;100.00;98612.03;5010217;28;20083;-60
2022/11/02 08:25:48;;;;;;;33.83;7.68;;;;;;;18.58;100.00;98613.44;5016739;28;20053;-59
2022/11/02 08:28:17;;;;;;;25.92;6.00;;;;;;;18.86;100.00;98612.50;5015162;28;20039;-60
2022/11/02 08:30:42;;;;;;;22.50;5.03;;;;;;;18.77;100.00;98620.16;5014820;28;20065;-61
2022/11/02 08:33:12;;;;;;;21.65;4.43;;;;;;;19.51;100.00;98610.03;5016786;28;20133;-61
2022/11/02 08:35:38;;;;;;;25.33;4.95;;;;;;;19.11;100.00;98604.75;5012928;28;20412;-60
2022/11/02 08:38:05;;;;;;;30.80;5.63;;;;;;;18.93;100.00;98610.34;5016426;28;20116;-60
2022/11/02 08:40:31;;;;;;;26.30;4.90;;;;;;;19.91;100.00;98610.81;5016454;28;20808;-59
2022/11/02 08:43:07;;;;;;;23.85;5.07;;;;;;;20.50;100.00;98612.81;5016364;28;20553;-60
2022/11/02 08:45:34;;;;;;;25.50;4.82;;;;;;;19.51;100.00;98615.31;5016561;28;20046;-61
2022/11/02 08:48:00;;;;;;;27.35;5.22;;;;;;;19.77;100.00;98627.63;5015641;28;20128;-60
2022/11/02 08:50:26;;;;;;;28.15;5.07;;;;;;;19.84;100.00;98628.91;5015297;28;20164;-60
2022/11/02 08:52:51;;;;;;;27.42;5.40;;;;;;;19.48;100.00;98628.75;5017412;28;20037;-61
2022/11/02 08:55:17;;;;;;;28.60;5.00;;;;;;;20.35;100.00;98637.78;5016788;28;20025;-62
2022/11/02 08:57:49;;;;;;;22.55;4.18;;;;;;;20.65;100.00;98642.69;5016661;28;20033;-60
2022/11/02 09:00:16;;;;;;;25.58;4.68;;;;;;;21.06;100.00;98649.41;5013092;28;20053;-60
2022/11/02 09:02:42;;;;;;;22.58;4.40;;;;;;;20.84;100.00;98644.00;5015101;28;20055;-60
2022/11/02 09:05:08;;;;;;;23.27;3.83;;;;;;;20.25;100.00;98647.31;5015849;28;21027;-59
2022/11/02 09:07:34;;;;;;;23.90;4.30;;;;;;;20.03;100.00;98638.22;5016781;28;20039;-60
2022/11/02 09:09:59;;;;;;;23.50;4.32;;;;;;;19.20;100.00;98644.66;5016116;28;20030;-60
2022/11/02 09:12:25;;;;;;;30.30;5.30;;;;;;;20.17;100.00;98651.34;5013827;28;20033;-61
2022/11/02 09:14:50;;;;;;;25.00;4.15;;;;;;;19.29;100.00;98643.19;5015670;28;20196;-60
2022/11/02 09:17:15;;;;;;;25.10;4.38;;;;;;;19.90;100.00;98645.31;5014801;28;20046;-60
2022/11/02 09:19:40;;;;;;;20.45;4.15;;;;;;;19.68;100.00;98646.75;5015310;28;20149;-60
2022/11/02 09:22:06;;;;;;;32.63;4.68;;;;;;;19.74;100.00;98654.34;5016420;28;20056;-60
2022/11/02 09:24:32;;;;;;;27.98;4.68;;;;;;;19.99;100.00;98652.63;5013891;28;20029;-60
2022/11/02 09:26:57;;;;;;;25.45;4.22;;;;;;;19.71;100.00;98659.78;5013952;28;20046;-60
2022/11/02 09:29:23;;;;;;;26.35;4.72;;;;;;;20.12;100.00;98658.75;5013364;28;20560;-60
2022/11/02 09:31:48;;;;;;;33.13;5.32;;;;;;;20.50;100.00;98663.16;5014713;28;20041;-60
2022/11/02 09:34:14;;;;;;;22.15;4.70;;;;;;;20.00;100.00;98664.94;5014177;28;20032;-59
2022/11/02 09:36:40;;;;;;;28.23;4.65;;;;;;;19.64;100.00;98651.41;5015148;28;20037;-60
2022/11/02 09:39:07;;;;;;;23.75;4.45;;;;;;;20.75;100.00;98653.47;5016086;28;20025;-60
2022/11/02 09:41:42;;;;;;;31.77;5.40;;;;;;;20.05;100.00;98654.00;5015509;28;20048;-62
2022/11/02 09:44:22;;;;;;;22.65;4.28;;;;;;;20.02;100.00;98657.72;5017871;28;20031;-61
2022/11/02 09:46:48;;;;;;;25.45;4.95;;;;;;;20.96;100.00;98659.88;5015743;28;20050;-60
2022/11/02 09:49:15;;;;;;;24.95;4.05;;;;;;;20.44;100.00;98666.25;5015218;28;20083;-60
2022/11/02 09:51:43;;;;;;;21.95;4.18;;;;;;;21.43;100.00;98667.06;5015600;28;20047;-60
2022/11/02 09:54:34;;;;;;;25.20;3.90;;;;;;;20.66;100.00;98662.09;5012906;28;20041;-60
2022/11/02 09:57:13;;;;;;;31.27;5.00;;;;;;;21.04;100.00;98666.41;5012307;28;20495;-61
2022/11/02 09:59:39;;;;;;;28.80;4.82;;;;;;;21.80;100.00;98664.31;5015775;28;20117;-60
2022/11/02 10:02:33;;;;;;;26.35;4.63;;;;;;;21.06;100.00;98661.84;5013111;28;20142;-60
2022/11/02 10:05:17;;;;;;;25.67;4.28;;;;;;;21.38;100.00;98673.56;5014936;28;20025;-60
2022/11/02 10:07:57;;;;;;;21.67;4.15;;;;;;;23.11;100.00;98668.16;4995688;28;20073;-60
2022/11/02 10:10:30;;;;;;;23.50;4.03;;;;;;;21.04;100.00;98666.41;4994096;28;20040;-60
2022/11/02 10:13:10;;;;;;;26.35;4.25;;;;;;;21.92;100.00;98669.50;4997058;28;20029;-62
2022/11/02 10:15:55;;;;;;;26.88;4.50;;;;;;;22.41;99.06;98664.88;4995009;28;20391;-61
2022/11/02 10:18:25;;;;;;;28.77;4.15;;;;;;;21.72;96.67;98663.06;4996399;28;20029;-60
2022/11/02 10:20:54;;;;;;;23.10;4.68;;;;;;;22.40;100.00;98663.16;4994224;28;20575;-61
2022/11/02 10:23:33;;;;;;;23.90;4.18;;;;;;;22.24;98.62;98670.63;4992810;28;20025;-61
2022/11/02 10:26:00;;;;;;;20.75;4.00;;;;;;;21.83;93.69;98672.88;4993486;28;20154;-62
2022/11/02 10:28:29;;;;;;;25.17;4.32;;;;;;;21.68;90.93;98668.75;4997354;28;20116;-63
2022/11/02 10:30:56;;;;;;;22.65;3.97;;;;;;;22.13;98.42;98666.19;4996217;28;20496;-61
2022/11/02 10:33:26;;;;;;;26.98;4.43;;;;;;;22.14;93.19;98666.03;4998837;28;20038;-60
2022/11/02 10:36:23;;;;;;;22.13;4.50;;;;;;;23.41;99.56;98661.25;4999741;28;20038;-63
2022/11/02 10:39:12;;;;;;;31.23;4.57;;;;;;;22.61;97.74;98665.13;4987960;28;20145;-60
2022/11/02 10:41:54;;;;;;;22.65;4.05;;;;;;;22.97;93.94;98660.44;4982417;28;20042;-60
2022/11/02 10:44:41;;;;;;;28.13;4.80;;;;;;;22.47;88.64;98661.72;4998649;28;20037;-60
2022/11/02 10:47:17;;;;;;;21.80;3.88;;;;;;;22.19;90.23;98656.88;4996617;28;20053;-61
2022/11/02 10:50:17;;;;;;;22.33;4.13;;;;;;;22.62;92.81;98661.47;4996900;28;20026;-61
2022/11/02 10:52:44;;;;;;;24.92;4.38;;;;;;;23.05;95.82;98663.34;4995627;28;20080;-61
2022/11/02 10:55:18;;;;;;;21.60;4.07;;;;;;;21.66;95.61;98658.25;4997491;28;20026;-61
2022/11/02 10:57:44;;;;;;;24.38;3.90;;;;;;;21.81;91.00;98650.06;4996949;28;20096;-63
2022/11/02 11:00:31;;;;;;;20.15;4.05;;;;;;;22.40;89.32;98657.84;4996742;28;20048;-63
2022/11/02 11:03:09;;;;;;;26.00;3.85;;;;;;;22.69;85.76;98647.56;4997958;28;20030;-61
2022/11/02 11:05:40;;;;;;;25.48;4.13;;;;;;;22.52;88.25;98651.56;4992647;28;20054;-61
2022/11/02 11:08:06;;;;;;;21.67;4.00;;;;;;;22.59;93.01;98645.75;4997159;28;20025;-65
2022/11/02 11:10:36;;;;;;;22.83;3.83;;;;;;;22.56;89.94;98651.34;4996420;28;20048;-62
2022/11/02 11:13:03;;;;;;;20.88;3.88;;;;;;;22.05;90.81;98649.97;4996873;28;20069;-61
2022/11/02 11:15:32;;;;;;;23.40;4.20;;;;;;;22.70;93.74;98659.06;4996191;28;20046;-61
2022/11/02 11:17:57;;;;;;;23.10;4.13;;;;;;;22.26;89.01;98651.00;4992708;28;20064;-61
2022/11/02 11:20:37;;;;;;;20.23;4.22;;;;;;;22.73;86.35;98649.97;4999467;28;20037;-61
2022/11/02 11:23:21;;;;;;;24.83;4.18;;;;;;;22.20;90.25;98650.59;4998078;28;20037;-61
2022/11/02 11:25:53;;;;;;;22.80;4.32;;;;;;;22.77;91.04;98646.94;4997361;28;20038;-61
2022/11/02 11:28:24;;;;;;;18.50;3.83;;;;;;;22.29;87.68;98649.88;4999567;28;20037;-61
2022/11/02 11:31:16;;;;;;;21.63;4.03;;;;;;;22.71;86.29;98650.09;4997441;28;20822;-62
2022/11/02 11:33:50;;;;;;;30.75;3.90;;;;;;;22.98;84.95;98651.50;5003099;28;20022;-61
2022/11/02 11:36:34;;;;;;;22.92;4.18;;;;;;;22.70;84.88;98648.41;4994894;28;20087;-61
2022/11/02 11:39:19;;;;;;;16.48;3.72;;;;;;;22.68;85.20;98650.34;5000231;28;20195;-61
2022/11/02 11:41:44;;;;;;;20.23;3.90;;;;;;;22.95;80.26;98649.91;4998628;28;20038;-59